createdAt,value
2019-02-14T00:02:21.342Z,6.60
2019-02-14T00:04:47.646Z,6.23
2019-02-14T00:07:14.221Z,7.00
2019-02-14T00:09:40.839Z,5.77
2019-02-14T00:12:07.429Z,7.17
2019-02-14T00:14:33.824Z,8.20
2019-02-14T00:17:00.414Z,7.40
2019-02-14T00:19:26.754Z,6.30
2019-02-14T00:21:53.297Z,7.83
2019-02-14T00:24:19.632Z,6.90
2019-02-14T00:26:46.202Z,6.20
2019-02-14T00:29:12.823Z,5.83
2019-02-14T00:31:40.222Z,7.03
2019-02-14T00:34:06.833Z,7.70
2019-02-14T00:36:33.133Z,6.47
2019-02-14T00:38:59.453Z,7.37
2019-02-14T00:41:26.002Z,6.63
2019-02-14T00:43:52.624Z,6.20
2019-02-14T00:46:18.925Z,5.90
2019-02-14T00:48:45.256Z,6.60
2019-02-14T00:51:11.585Z,6.13
2019-02-14T00:53:37.957Z,7.00
2019-02-14T00:56:04.328Z,5.80
2019-02-14T00:58:30.920Z,5.93
2019-02-14T01:00:57.289Z,6.00
2019-02-14T01:03:23.582Z,6.40
2019-02-14T01:05:50.234Z,6.13
2019-02-14T01:08:16.521Z,6.50
2019-02-14T01:10:43.118Z,7.07
2019-02-14T01:13:09.697Z,5.87
2019-02-14T01:15:36.411Z,6.37
2019-02-14T01:18:03.037Z,6.43
2019-02-14T01:20:29.467Z,5.33
2019-02-14T01:22:56.055Z,6.30
2019-02-14T01:25:22.443Z,6.17
2019-02-14T01:27:48.765Z,5.83
2019-02-14T01:30:15.098Z,6.03
2019-02-14T01:32:41.380Z,5.93
2019-02-14T01:35:08.359Z,5.20
2019-02-14T01:37:34.937Z,6.40
2019-02-14T01:40:01.260Z,5.63
2019-02-14T01:42:29.509Z,8.00
2019-02-14T01:44:55.831Z,5.33
2019-02-14T01:47:22.378Z,5.73
2019-02-14T01:49:48.730Z,6.10
2019-02-14T01:52:15.127Z,6.00
2019-02-14T01:54:41.725Z,6.00
2019-02-14T01:57:08.058Z,6.30
2019-02-14T01:59:34.397Z,6.47
2019-02-14T02:02:01.606Z,5.73
2019-02-14T02:04:27.926Z,5.40
2019-02-14T02:06:54.531Z,4.80
2019-02-14T02:09:21.299Z,5.27
2019-02-14T02:11:47.861Z,6.20
2019-02-14T02:14:14.444Z,5.13
2019-02-14T02:16:41.008Z,4.87
2019-02-14T02:19:07.366Z,6.30
2019-02-14T02:21:34.144Z,4.93
2019-02-14T02:24:00.791Z,5.30
2019-02-14T02:26:27.123Z,5.30
2019-02-14T02:28:54.453Z,4.90
2019-02-14T02:31:20.867Z,4.93
2019-02-14T02:33:47.180Z,4.20
2019-02-14T02:36:13.494Z,5.87
2019-02-14T02:38:39.834Z,5.00
2019-02-14T02:41:06.138Z,4.83
2019-02-14T02:43:32.466Z,5.87
2019-02-14T02:45:58.771Z,5.53
2019-02-14T02:48:25.119Z,5.57
2019-02-14T02:50:51.419Z,5.17
2019-02-14T02:53:17.775Z,6.50
2019-02-14T02:55:44.111Z,5.33
2019-02-14T02:58:10.671Z,5.53
2019-02-14T03:00:37.014Z,5.63
2019-02-14T03:03:03.307Z,5.10
2019-02-14T03:05:29.648Z,5.90
2019-02-14T03:07:55.998Z,4.27
2019-02-14T03:10:22.284Z,5.30
2019-02-14T03:12:48.824Z,3.93
2019-02-14T03:15:15.495Z,4.40
2019-02-14T03:17:41.832Z,4.27
2019-02-14T03:20:12.157Z,4.43
2019-02-14T03:22:38.691Z,4.23
2019-02-14T03:25:16.570Z,4.47
2019-02-14T03:27:43.183Z,3.60
2019-02-14T03:30:14.236Z,4.37
2019-02-14T03:32:40.560Z,5.03
2019-02-14T03:35:07.587Z,4.87
2019-02-14T03:37:36.157Z,4.60
2019-02-14T03:40:06.390Z,4.40
2019-02-14T03:42:33.026Z,4.83
2019-02-14T03:44:59.620Z,4.80
2019-02-14T03:47:26.317Z,4.40
2019-02-14T03:49:52.643Z,4.50
2019-02-14T03:52:19.255Z,4.27
2019-02-14T03:54:45.867Z,5.07
2019-02-14T03:57:12.192Z,4.90
2019-02-14T03:59:38.758Z,4.47
2019-02-14T04:02:05.350Z,3.70
2019-02-14T04:04:31.712Z,3.93
2019-02-14T04:06:58.036Z,4.10
2019-02-14T04:09:24.340Z,3.87
2019-02-14T04:11:50.755Z,4.10
2019-02-14T04:14:17.319Z,4.63
2019-02-14T04:16:43.735Z,4.10
2019-02-14T04:19:10.303Z,3.67
2019-02-14T04:21:37.643Z,3.90
2019-02-14T04:24:04.198Z,4.63
2019-02-14T04:26:30.554Z,4.47
2019-02-14T04:28:56.870Z,4.60
2019-02-14T04:31:23.545Z,4.13
2019-02-14T04:33:50.883Z,3.67
2019-02-14T04:36:17.466Z,3.60
2019-02-14T04:38:43.798Z,3.50
2019-02-14T04:41:10.106Z,5.50
2019-02-14T04:43:36.696Z,4.20
2019-02-14T04:46:03.238Z,3.70
2019-02-14T04:48:33.235Z,4.13
2019-02-14T04:50:59.830Z,3.17
2019-02-14T04:53:26.148Z,3.30
2019-02-14T04:55:54.480Z,2.90
2019-02-14T04:58:21.245Z,3.80
2019-02-14T05:00:47.607Z,3.73
2019-02-14T05:03:14.152Z,3.83
2019-02-14T05:05:40.717Z,3.87
2019-02-14T05:08:07.056Z,3.30
2019-02-14T05:10:33.660Z,3.20
2019-02-14T05:12:59.987Z,3.33
2019-02-14T05:15:26.314Z,3.37
2019-02-14T05:17:52.657Z,4.07
2019-02-14T05:20:18.970Z,3.50
2019-02-14T05:22:45.582Z,3.57
2019-02-14T05:25:11.879Z,4.70
2019-02-14T05:27:38.575Z,3.87
2019-02-14T05:30:16.519Z,5.67
2019-02-14T05:32:42.938Z,2.70
2019-02-14T05:35:09.533Z,3.07
2019-02-14T05:37:35.911Z,3.73
2019-02-14T05:40:04.737Z,4.23
2019-02-14T05:42:31.081Z,2.93
2019-02-14T05:44:57.420Z,3.00
2019-02-14T05:47:23.749Z,3.20
2019-02-14T05:49:50.401Z,3.17
2019-02-14T05:52:17.344Z,3.10
2019-02-14T05:54:43.630Z,3.50
2019-02-14T05:57:09.971Z,3.63
2019-02-14T05:59:36.319Z,3.10
2019-02-14T06:02:02.936Z,2.70
2019-02-14T06:04:29.572Z,3.07
2019-02-14T06:07:01.077Z,2.47
2019-02-14T06:09:24.217Z,3.00
2019-02-14T06:11:50.516Z,3.90
2019-02-14T06:14:17.545Z,2.40
2019-02-14T06:16:43.909Z,2.50
2019-02-14T06:19:10.597Z,2.23
2019-02-14T06:21:36.942Z,3.17
2019-02-14T06:24:03.551Z,2.77
2019-02-14T06:26:30.020Z,2.53
2019-02-14T06:28:56.660Z,3.47
2019-02-14T06:31:23.003Z,3.20
2019-02-14T06:33:51.779Z,3.03
2019-02-14T06:36:18.680Z,2.90
2019-02-14T06:38:45.265Z,3.40
2019-02-14T06:41:11.874Z,5.50
2019-02-14T06:43:38.253Z,4.53
2019-02-14T06:46:04.836Z,3.23
2019-02-14T06:48:31.131Z,2.40
2019-02-14T06:50:57.523Z,4.20
2019-02-14T06:53:24.140Z,3.73
2019-02-14T06:55:50.434Z,3.83
2019-02-14T06:58:17.050Z,4.63
2019-02-14T07:00:43.443Z,5.40
2019-02-14T07:03:10.111Z,5.17
2019-02-14T07:05:36.548Z,4.43
2019-02-14T07:08:02.893Z,4.40
2019-02-14T07:10:29.524Z,3.57
2019-02-14T07:12:56.931Z,4.80
2019-02-14T07:15:23.316Z,3.50
2019-02-14T07:17:49.911Z,3.40
2019-02-14T07:20:16.483Z,3.57
2019-02-14T07:22:51.227Z,4.23
2019-02-14T07:25:19.949Z,3.20
2019-02-14T07:27:46.522Z,2.33
2019-02-14T07:30:22.110Z,2.40
2019-02-14T07:32:48.585Z,3.40
2019-02-14T07:35:14.899Z,2.80
2019-02-14T07:37:41.301Z,3.00
2019-02-14T07:40:13.468Z,3.10
2019-02-14T07:42:40.061Z,3.73
2019-02-14T07:45:12.739Z,2.90
2019-02-14T07:47:39.119Z,3.13
2019-02-14T07:50:09.181Z,3.60
2019-02-14T07:52:35.912Z,4.13
2019-02-14T07:55:03.394Z,3.90
2019-02-14T07:57:29.930Z,4.73
2019-02-14T07:59:56.586Z,3.00
2019-02-14T08:02:23.438Z,4.63
2019-02-14T08:04:49.884Z,4.47
2019-02-14T08:07:16.504Z,3.27
2019-02-14T08:09:42.840Z,3.03
2019-02-14T08:12:09.882Z,3.37
2019-02-14T08:14:36.535Z,3.03
2019-02-14T08:17:03.139Z,2.80
2019-02-14T08:19:29.801Z,3.53
2019-02-14T08:21:56.164Z,3.67
2019-02-14T08:24:22.498Z,3.30
2019-02-14T08:26:49.035Z,2.77
2019-02-14T08:29:15.427Z,3.40
2019-02-14T08:31:41.813Z,2.87
2019-02-14T08:34:08.482Z,3.27
2019-02-14T08:36:34.985Z,2.70
2019-02-14T08:39:01.290Z,2.70
2019-02-14T08:41:29.550Z,3.20
2019-02-14T08:43:55.909Z,2.80
2019-02-14T08:46:22.276Z,3.10
2019-02-14T08:48:49.118Z,3.40
2019-02-14T08:51:15.437Z,3.60
2019-02-14T08:53:41.881Z,2.67
2019-02-14T08:56:08.203Z,3.60
2019-02-14T08:58:34.522Z,3.47
2019-02-14T09:01:01.221Z,3.00
2019-02-14T09:03:27.530Z,3.00
2019-02-14T09:05:53.862Z,4.00
2019-02-14T09:08:20.459Z,3.17
2019-02-14T09:10:47.579Z,3.40
2019-02-14T09:13:17.319Z,3.60
2019-02-14T09:15:42.466Z,4.10
2019-02-14T09:18:08.799Z,3.93
2019-02-14T09:20:35.419Z,3.47
2019-02-14T09:23:01.849Z,2.93
2019-02-14T09:25:28.181Z,3.80
2019-02-14T09:27:54.503Z,3.80
2019-02-14T09:30:20.824Z,3.57
2019-02-14T09:32:47.154Z,3.73
2019-02-14T09:35:13.510Z,4.10
2019-02-14T09:37:39.846Z,4.40
2019-02-14T09:40:12.197Z,3.60
2019-02-14T09:42:39.423Z,4.00
2019-02-14T09:45:11.224Z,4.20
2019-02-14T09:47:37.831Z,3.63
2019-02-14T09:50:07.967Z,4.50
2019-02-14T09:52:34.596Z,5.10
2019-02-14T09:55:00.948Z,4.03
2019-02-14T09:57:27.351Z,4.20
2019-02-14T09:59:54.718Z,5.57
2019-02-14T10:02:21.847Z,5.20
2019-02-14T10:04:48.175Z,5.77
2019-02-14T10:07:14.555Z,5.87
2019-02-14T10:09:41.042Z,6.10
2019-02-14T10:12:07.444Z,6.20
2019-02-14T10:14:34.045Z,6.07
2019-02-14T10:17:00.642Z,6.30
2019-02-14T10:19:28.644Z,5.90
2019-02-14T10:21:55.225Z,4.80
2019-02-14T10:24:21.918Z,5.60
2019-02-14T10:26:48.324Z,4.43
2019-02-14T10:29:14.792Z,4.53
2019-02-14T10:31:41.191Z,4.27
2019-02-14T10:34:07.867Z,4.23
2019-02-14T10:36:34.438Z,3.83
2019-02-14T10:39:00.886Z,3.50
2019-02-14T10:41:29.216Z,3.53
2019-02-14T10:43:55.713Z,4.20
2019-02-14T10:46:22.042Z,3.50
2019-02-14T10:48:48.626Z,3.20
2019-02-14T10:51:15.044Z,5.00
2019-02-14T10:53:41.748Z,3.63
2019-02-14T10:56:08.311Z,3.53
2019-02-14T10:58:34.660Z,3.37
2019-02-14T11:01:01.194Z,4.40
2019-02-14T11:03:27.639Z,3.83
2019-02-14T11:05:54.980Z,4.67
2019-02-14T11:08:21.641Z,4.37
2019-02-14T11:10:47.959Z,3.53
2019-02-14T11:13:14.542Z,3.73
2019-02-14T11:15:40.999Z,3.50
2019-02-14T11:18:07.777Z,4.00
2019-02-14T11:20:34.105Z,3.80
2019-02-14T11:23:00.714Z,4.80
2019-02-14T11:25:36.199Z,3.83
2019-02-14T11:28:02.649Z,5.43
2019-02-14T11:30:29.378Z,4.07
2019-02-14T11:32:55.692Z,3.37
2019-02-14T11:35:22.016Z,3.73
2019-02-14T11:37:48.374Z,5.23
2019-02-14T11:40:15.295Z,5.23
2019-02-14T11:42:41.616Z,4.00
2019-02-14T11:45:15.789Z,4.23
2019-02-14T11:47:43.078Z,4.70
2019-02-14T11:50:11.595Z,3.80
2019-02-14T11:52:38.020Z,4.80
2019-02-14T11:55:06.712Z,4.20
2019-02-14T11:57:33.263Z,5.47
2019-02-14T11:59:59.650Z,4.07
2019-02-14T12:02:26.353Z,4.73
2019-02-14T12:04:53.595Z,4.80
2019-02-14T12:07:20.264Z,5.03
2019-02-14T12:09:46.874Z,4.47
2019-02-14T12:12:13.470Z,4.70
2019-02-14T12:14:40.341Z,5.07
2019-02-14T12:17:09.142Z,5.73
2019-02-14T12:19:38.422Z,4.97
2019-02-14T12:22:04.719Z,4.60
2019-02-14T12:24:31.097Z,5.90
2019-02-14T12:26:57.728Z,5.13
2019-02-14T12:29:24.406Z,5.60
2019-02-14T12:31:50.767Z,4.90
2019-02-14T12:34:17.097Z,4.33
2019-02-14T12:36:43.585Z,5.30
2019-02-14T12:39:11.636Z,4.70
2019-02-14T12:41:38.244Z,5.63
2019-02-14T12:44:04.806Z,5.87
2019-02-14T12:46:31.449Z,5.17
2019-02-14T12:48:58.008Z,4.90
2019-02-14T12:51:26.247Z,5.30
2019-02-14T12:53:52.866Z,4.47
2019-02-14T12:56:19.173Z,5.07
2019-02-14T12:58:45.838Z,4.50
2019-02-14T13:01:12.444Z,4.50
2019-02-14T13:03:38.812Z,4.77
2019-02-14T13:06:05.149Z,5.50
2019-02-14T13:08:32.167Z,5.87
2019-02-14T13:10:58.695Z,4.30
2019-02-14T13:13:25.172Z,5.20
2019-02-14T13:15:53.011Z,5.23
2019-02-14T13:18:19.939Z,4.80
2019-02-14T13:20:46.284Z,4.80
2019-02-14T13:23:12.930Z,4.60
2019-02-14T13:25:39.360Z,4.73
2019-02-14T13:28:05.686Z,4.57
2019-02-14T13:30:32.097Z,4.53
2019-02-14T13:32:58.813Z,5.50
2019-02-14T13:35:25.163Z,4.20
2019-02-14T13:37:51.629Z,3.90
2019-02-14T13:40:17.988Z,3.43
2019-02-14T13:42:44.628Z,4.20
2019-02-14T13:45:20.697Z,3.80
2019-02-14T13:47:49.895Z,3.30
2019-02-14T13:50:16.492Z,4.03
2019-02-14T13:52:42.831Z,4.83
2019-02-14T13:55:09.746Z,4.77
2019-02-14T13:57:36.111Z,3.90
2019-02-14T14:00:08.467Z,4.13
2019-02-14T14:02:34.910Z,4.80
2019-02-14T14:05:01.357Z,3.63
2019-02-14T14:07:28.102Z,3.80
2019-02-14T14:09:54.939Z,3.70
2019-02-14T14:12:21.416Z,3.70
2019-02-14T14:14:47.778Z,3.63
2019-02-14T14:17:14.383Z,4.00
2019-02-14T14:19:41.136Z,3.57
2019-02-14T14:22:07.570Z,3.50
2019-02-14T14:24:33.913Z,3.40
2019-02-14T14:27:00.346Z,3.63
2019-02-14T14:29:26.943Z,3.50
2019-02-14T14:31:53.277Z,3.50
2019-02-14T14:34:19.694Z,3.20
2019-02-14T14:36:46.075Z,3.13
2019-02-14T14:39:12.607Z,3.03
2019-02-14T14:41:39.243Z,3.37
2019-02-14T14:44:07.929Z,2.83
2019-02-14T14:46:34.743Z,3.17
2019-02-14T14:49:01.101Z,3.10
2019-02-14T14:51:27.700Z,2.90
2019-02-14T14:53:54.072Z,3.33
2019-02-14T14:56:21.602Z,3.30
2019-02-14T14:58:48.196Z,2.50
2019-02-14T15:01:14.841Z,3.17
2019-02-14T15:03:41.468Z,2.83
2019-02-14T15:06:07.858Z,2.70
2019-02-14T15:08:35.200Z,2.77
2019-02-14T15:11:01.659Z,2.93
2019-02-14T15:13:28.141Z,3.53
2019-02-14T15:15:54.568Z,2.70
2019-02-14T15:18:20.937Z,2.97
2019-02-14T15:20:47.554Z,3.10
2019-02-14T15:23:13.906Z,2.90
2019-02-14T15:25:40.510Z,2.40
2019-02-14T15:28:07.099Z,2.53
2019-02-14T15:30:33.472Z,3.00
2019-02-14T15:33:00.067Z,3.27
2019-02-14T15:35:26.693Z,2.80
2019-02-14T15:37:53.021Z,2.03
2019-02-14T15:40:19.436Z,3.10
2019-02-14T15:42:45.765Z,2.13
2019-02-14T15:45:12.351Z,3.10
2019-02-14T15:47:38.724Z,2.50
2019-02-14T15:50:08.977Z,3.10
2019-02-14T15:52:35.463Z,3.80
2019-02-14T15:55:01.956Z,3.53
2019-02-14T15:57:28.406Z,3.10
2019-02-14T15:59:54.719Z,3.60
2019-02-14T16:02:21.117Z,4.47
2019-02-14T16:04:47.673Z,2.87
2019-02-14T16:07:15.343Z,3.20
2019-02-14T16:09:42.362Z,3.60
2019-02-14T16:12:09.010Z,4.17
2019-02-14T16:14:35.677Z,3.93
2019-02-14T16:17:02.096Z,3.37
2019-02-14T16:19:28.786Z,3.63
2019-02-14T16:21:56.148Z,3.80
2019-02-14T16:24:23.576Z,4.00
2019-02-14T16:26:49.910Z,3.60
2019-02-14T16:29:16.213Z,3.87
2019-02-14T16:31:42.914Z,4.90
2019-02-14T16:34:09.559Z,3.70
2019-02-14T16:36:35.934Z,4.30
2019-02-14T16:39:04.195Z,3.63
2019-02-14T16:41:32.740Z,4.27
2019-02-14T16:43:59.286Z,4.77
2019-02-14T16:46:26.676Z,5.20
2019-02-14T16:48:53.224Z,4.90
2019-02-14T16:51:19.804Z,5.53
2019-02-14T16:53:46.180Z,6.43
2019-02-14T16:56:12.515Z,5.20
2019-02-14T16:58:38.938Z,5.93
2019-02-14T17:01:05.382Z,5.67
2019-02-14T17:03:32.352Z,4.50
2019-02-14T17:05:58.940Z,4.87
2019-02-14T17:08:25.679Z,5.10
2019-02-14T17:10:52.362Z,5.50
2019-02-14T17:13:18.977Z,4.70
2019-02-14T17:15:45.314Z,5.43
2019-02-14T17:18:12.004Z,5.17
2019-02-14T17:20:38.321Z,4.63
2019-02-14T17:23:04.992Z,5.00
2019-02-14T17:25:31.722Z,5.10
2019-02-14T17:27:58.112Z,5.17
2019-02-14T17:30:24.714Z,5.47
2019-02-14T17:32:52.523Z,3.97
2019-02-14T17:35:18.881Z,4.50
2019-02-14T17:37:46.102Z,4.40
2019-02-14T17:40:12.784Z,5.70
2019-02-14T17:42:39.238Z,5.07
2019-02-14T17:45:08.510Z,5.33
2019-02-14T17:47:34.926Z,4.80
2019-02-14T17:50:01.256Z,5.60
2019-02-14T17:52:27.591Z,5.10
2019-02-14T17:54:54.243Z,5.20
2019-02-14T17:57:20.843Z,5.43
2019-02-14T17:59:47.451Z,5.57
2019-02-14T18:02:15.447Z,4.40
2019-02-14T18:04:42.061Z,4.90
2019-02-14T18:07:08.370Z,6.07
2019-02-14T18:09:34.703Z,4.73
2019-02-14T18:12:01.304Z,4.73
2019-02-14T18:14:27.841Z,3.70
2019-02-14T18:16:54.171Z,3.50
2019-02-14T18:19:20.798Z,5.70
2019-02-14T18:21:47.469Z,4.80
2019-02-14T18:24:14.172Z,5.27
2019-02-14T18:26:40.495Z,6.47
2019-02-14T18:29:06.812Z,7.63
2019-02-14T18:31:33.144Z,7.70
2019-02-14T18:33:59.502Z,6.93
2019-02-14T18:36:26.046Z,7.60
2019-02-14T18:38:52.863Z,7.50
2019-02-14T18:41:19.229Z,6.13
2019-02-14T18:43:45.657Z,9.40
2019-02-14T18:46:12.475Z,6.90
2019-02-14T18:48:38.799Z,6.40
2019-02-14T18:51:05.372Z,5.50
2019-02-14T18:53:31.729Z,5.43
2019-02-14T18:55:58.099Z,5.60
2019-02-14T18:58:26.649Z,6.77
2019-02-14T19:00:52.960Z,5.93
2019-02-14T19:03:19.382Z,7.80
2019-02-14T19:05:45.726Z,8.03
2019-02-14T19:08:12.359Z,7.00
2019-02-14T19:10:38.757Z,6.40
2019-02-14T19:13:05.352Z,9.87
2019-02-14T19:15:31.702Z,7.80
2019-02-14T19:17:58.401Z,4.67
2019-02-14T19:20:24.770Z,6.20
2019-02-14T19:22:51.119Z,6.43
2019-02-14T19:25:18.085Z,6.83
2019-02-14T19:27:44.666Z,5.40
2019-02-14T19:30:12.372Z,6.53
2019-02-14T19:32:39.019Z,9.03
2019-02-14T19:35:08.014Z,7.33
2019-02-14T19:37:35.567Z,6.43
2019-02-14T19:40:02.164Z,6.13
2019-02-14T19:42:28.826Z,7.00
2019-02-14T19:44:55.599Z,7.20
2019-02-14T19:47:22.168Z,7.87
2019-02-14T19:49:48.525Z,8.97
2019-02-14T19:52:14.884Z,5.10
2019-02-14T19:54:41.499Z,5.27
2019-02-14T19:57:08.123Z,10.30
2019-02-14T19:59:34.457Z,7.67
2019-02-14T20:02:01.104Z,8.67
2019-02-14T20:04:27.693Z,7.80
2019-02-14T20:06:54.154Z,8.73
2019-02-14T20:09:20.931Z,10.13
2019-02-14T20:11:47.286Z,8.30
2019-02-14T20:14:14.651Z,8.00
2019-02-14T20:16:41.272Z,8.90
2019-02-14T20:19:07.656Z,8.30
2019-02-14T20:21:34.226Z,7.83
2019-02-14T20:24:00.851Z,7.60
2019-02-14T20:26:27.290Z,7.80
2019-02-14T20:28:53.681Z,11.00
2019-02-14T20:31:20.309Z,8.20
2019-02-14T20:33:46.860Z,8.47
2019-02-14T20:36:13.222Z,6.83
2019-02-14T20:38:39.781Z,7.77
2019-02-14T20:41:06.485Z,7.33
2019-02-14T20:43:32.940Z,7.10
2019-02-14T20:45:59.442Z,8.67
2019-02-14T20:48:26.335Z,7.57
2019-02-14T20:50:52.819Z,8.37
2019-02-14T20:53:19.290Z,8.73
2019-02-14T20:55:45.687Z,8.80
2019-02-14T20:58:12.475Z,8.00
2019-02-14T21:00:39.280Z,8.90
2019-02-14T21:03:05.958Z,13.77
2019-02-14T21:05:32.616Z,12.40
2019-02-14T21:08:00.263Z,8.20
2019-02-14T21:10:26.632Z,8.60
2019-02-14T21:12:53.297Z,10.13
2019-02-14T21:15:19.598Z,8.50
2019-02-14T21:17:46.201Z,9.03
2019-02-14T21:20:14.682Z,9.30
2019-02-14T21:22:41.123Z,8.40
2019-02-14T21:25:08.168Z,8.30
2019-02-14T21:27:35.255Z,7.37
2019-02-14T21:30:03.084Z,6.20
2019-02-14T21:32:29.912Z,8.37
2019-02-14T21:34:56.247Z,7.30
2019-02-14T21:37:23.784Z,7.73
2019-02-14T21:39:50.268Z,8.40
2019-02-14T21:42:20.560Z,8.13
2019-02-14T21:44:44.912Z,7.73
2019-02-14T21:47:11.523Z,8.20
2019-02-14T21:49:38.039Z,9.70
2019-02-14T21:52:04.356Z,7.93
2019-02-14T21:54:31.771Z,7.90
2019-02-14T21:56:58.330Z,12.20
2019-02-14T21:59:24.890Z,9.00
2019-02-14T22:01:51.329Z,8.47
2019-02-14T22:04:17.809Z,8.60
2019-02-14T22:06:44.246Z,10.50
2019-02-14T22:09:10.623Z,8.50
2019-02-14T22:11:37.114Z,6.60
2019-02-14T22:14:03.633Z,7.13
2019-02-14T22:16:29.983Z,9.13
2019-02-14T22:18:56.639Z,9.07
2019-02-14T22:21:23.271Z,9.43
2019-02-14T22:23:49.573Z,9.70
2019-02-14T22:26:16.887Z,8.80
2019-02-14T22:28:43.249Z,8.33
2019-02-14T22:31:09.822Z,8.90
2019-02-14T22:33:36.420Z,9.17
2019-02-14T22:36:03.077Z,9.20
2019-02-14T22:38:29.683Z,8.47
2019-02-14T22:40:57.006Z,9.60
2019-02-14T22:43:23.405Z,9.77
2019-02-14T22:45:50.010Z,9.10
2019-02-14T22:48:16.593Z,7.90
2019-02-14T22:50:42.996Z,9.30
2019-02-14T22:53:09.554Z,10.10
2019-02-14T22:55:36.157Z,7.90
2019-02-14T22:58:02.467Z,9.60
2019-02-14T23:00:36.877Z,8.47
2019-02-14T23:03:05.666Z,10.47
2019-02-14T23:05:32.346Z,9.20
2019-02-14T23:07:58.668Z,9.20
2019-02-14T23:10:24.993Z,9.13
2019-02-14T23:12:55.680Z,8.73
2019-02-14T23:15:19.537Z,9.10
2019-02-14T23:17:45.885Z,10.70
2019-02-14T23:20:12.217Z,9.97
2019-02-14T23:22:38.581Z,8.93
2019-02-14T23:25:05.174Z,9.40
2019-02-14T23:27:31.503Z,9.67
2019-02-14T23:29:58.099Z,7.50
2019-02-14T23:32:24.675Z,10.03
2019-02-14T23:34:50.986Z,8.93
2019-02-14T23:37:17.404Z,7.07
2019-02-14T23:39:44.018Z,8.43
2019-02-14T23:42:10.349Z,8.07
2019-02-14T23:44:36.921Z,7.70
2019-02-14T23:47:03.508Z,9.13
2019-02-14T23:49:30.162Z,7.57
2019-02-14T23:51:56.486Z,7.13
2019-02-14T23:54:23.087Z,8.60
2019-02-14T23:56:49.662Z,6.87
2019-02-14T23:59:16.296Z,8.00
